Time;durP1;ratioP1;P1;durP2;ratioP2;P2;SDS_P1;SDS_P2;PMS_P1;PMS_P2;Temp;Humidity;BMP_temperature;BMP_pressure;BME280_temperature;BME280_humidity;BME280_pressure;Samples;Min_cycle;Max_cycle;Signal;HPM_P1;HPM_P2
2022/06/28 00:02:10;;;;;;;8.73;3.95;;;16.40;72.00;;;;;;5109724;28;20128;-68
2022/06/28 00:04:36;;;;;;;6.53;4.35;;;16.40;72.20;;;;;;5108131;28;20027;-68
2022/06/28 00:07:03;;;;;;;6.90;3.60;;;16.40;72.10;;;;;;5108290;28;20027;-68
2022/06/28 00:09:29;;;;;;;7.07;4.22;;;16.40;72.10;;;;;;5110044;28;20111;-68
2022/06/28 00:11:56;;;;;;;21.42;4.72;;;16.40;72.30;;;;;;5109489;28;20111;-68
2022/06/28 00:17:07;;;;;;;5.63;3.83;;;16.30;72.60;;;;;;5111593;28;20030;-68
2022/06/28 00:19:34;;;;;;;4.07;3.67;;;16.30;72.60;;;;;;5109182;28;20067;-67
2022/06/28 00:22:00;;;;;;;4.78;4.28;;;16.30;72.60;;;;;;5111196;28;20024;-67
2022/06/28 00:24:27;;;;;;;4.13;3.72;;;16.30;72.60;;;;;;5108042;28;20054;-68
2022/06/28 00:26:53;;;;;;;5.72;3.58;;;16.30;72.50;;;;;;5107578;28;20027;-67
2022/06/28 00:29:20;;;;;;;7.07;4.35;;;16.20;72.60;;;;;;5108575;28;20110;-67
2022/06/28 00:31:46;;;;;;;11.13;3.80;;;16.20;72.70;;;;;;5108141;28;20114;-67
2022/06/28 00:34:13;;;;;;;6.00;4.00;;;16.20;72.80;;;;;;5110403;28;20115;-68
2022/06/28 00:36:40;;;;;;;8.18;4.20;;;16.30;73.00;;;;;;5107672;28;20367;-67
2022/06/28 00:39:07;;;;;;;3.90;3.17;;;16.20;73.00;;;;;;5111791;28;20103;-68
2022/06/28 00:41:34;;;;;;;4.97;3.78;;;16.20;72.90;;;;;;5106301;28;20019;-68
2022/06/28 00:44:01;;;;;;;4.25;3.92;;;16.20;72.80;;;;;;5108611;28;20024;-67
2022/06/28 00:46:29;;;;;;;4.22;3.20;;;16.20;72.60;;;;;;5109537;28;20027;-67
2022/06/28 00:48:56;;;;;;;4.03;3.42;;;16.20;72.60;;;;;;5103168;28;20016;-68
2022/06/28 00:51:24;;;;;;;3.33;3.03;;;16.20;72.40;;;;;;5109607;28;20102;-68
2022/06/28 00:53:51;;;;;;;3.78;2.97;;;16.20;72.50;;;;;;5109527;28;20036;-68
2022/06/28 00:56:17;;;;;;;11.15;4.15;;;16.20;72.50;;;;;;5108255;28;20019;-67
2022/06/28 00:58:44;;;;;;;13.88;3.75;;;16.20;72.70;;;;;;5108375;28;20016;-68
2022/06/28 01:01:10;;;;;;;3.30;3.00;;;16.20;72.70;;;;;;5107418;28;20127;-68
2022/06/28 01:03:37;;;;;;;5.65;3.40;;;16.20;72.50;;;;;;5108053;28;20012;-68
2022/06/28 01:06:04;;;;;;;3.40;3.10;;;16.20;72.40;;;;;;5105456;28;20028;-68
2022/06/28 01:08:31;;;;;;;5.03;3.05;;;16.10;72.00;;;;;;5107755;28;20019;-68
2022/06/28 01:10:57;;;;;;;3.35;2.90;;;16.10;71.90;;;;;;5106091;28;20047;-68
2022/06/28 01:13:24;;;;;;;4.47;2.97;;;16.10;71.90;;;;;;5110944;28;20537;-68
2022/06/28 01:15:51;;;;;;;7.93;3.22;;;16.10;71.90;;;;;;5107956;28;20110;-67
2022/06/28 01:18:18;;;;;;;8.40;3.85;;;16.10;72.10;;;;;;5107993;28;20031;-68
2022/06/28 01:20:45;;;;;;;4.40;4.00;;;16.10;72.30;;;;;;5108680;28;20371;-68
2022/06/28 01:23:19;;;;;;;5.57;3.47;;;16.10;72.40;;;;;;5109632;28;20067;-68
2022/06/28 01:25:45;;;;;;;5.07;4.13;;;16.00;72.50;;;;;;5108516;28;20055;-68
2022/06/28 01:28:12;;;;;;;5.10;3.95;;;16.00;72.60;;;;;;5107821;28;20107;-68
2022/06/28 01:30:39;;;;;;;6.53;4.10;;;16.00;72.60;;;;;;5109159;28;20028;-67
2022/06/28 01:33:05;;;;;;;10.20;4.60;;;16.00;72.80;;;;;;5109579;28;20023;-67
2022/06/28 01:35:32;;;;;;;6.47;3.88;;;16.00;72.90;;;;;;5108666;28;20023;-67
2022/06/28 01:38:00;;;;;;;5.15;4.47;;;16.00;72.80;;;;;;5108492;28;20030;-67
2022/06/28 01:40:26;;;;;;;6.38;4.28;;;16.00;72.80;;;;;;5106465;28;20378;-68
2022/06/28 01:42:54;;;;;;;7.10;4.13;;;16.00;72.90;;;;;;5109107;28;20011;-67
2022/06/28 01:45:21;;;;;;;4.35;3.80;;;16.00;72.80;;;;;;5106350;28;20377;-67
2022/06/28 01:47:48;;;;;;;5.40;4.32;;;16.00;72.90;;;;;;5108468;28;20473;-68
2022/06/28 01:50:14;;;;;;;9.25;4.00;;;15.90;72.80;;;;;;5109465;28;20024;-68
2022/06/28 01:52:41;;;;;;;4.50;3.55;;;15.90;72.70;;;;;;5109159;28;20112;-68
2022/06/28 01:55:08;;;;;;;4.38;3.95;;;15.90;72.70;;;;;;5108882;28;20026;-68
2022/06/28 01:57:35;;;;;;;3.67;3.38;;;15.90;72.60;;;;;;5104975;28;20014;-68
2022/06/28 02:00:02;;;;;;;5.25;4.28;;;15.90;72.50;;;;;;5110109;28;20035;-67
2022/06/28 02:02:29;;;;;;;5.55;4.30;;;15.90;72.50;;;;;;5105680;28;20073;-68
2022/06/28 02:04:55;;;;;;;5.55;4.63;;;15.90;72.50;;;;;;5107836;28;20055;-68
2022/06/28 02:07:22;;;;;;;4.28;3.60;;;15.90;72.40;;;;;;5095399;28;20020;-68
2022/06/28 02:09:48;;;;;;;5.40;3.83;;;15.90;72.40;;;;;;5108002;28;20044;-67
2022/06/28 02:12:15;;;;;;;8.65;3.97;;;15.90;72.80;;;;;;5106552;28;20032;-68
2022/06/28 02:14:41;;;;;;;7.53;4.60;;;15.90;72.80;;;;;;5108518;28;20016;-67
2022/06/28 02:17:07;;;;;;;5.57;4.25;;;15.80;72.70;;;;;;5101026;28;20044;-67
2022/06/28 02:19:34;;;;;;;4.80;3.95;;;15.80;72.70;;;;;;5106467;28;20074;-67
2022/06/28 02:22:01;;;;;;;6.15;4.60;;;15.80;72.80;;;;;;5108183;28;20031;-67
2022/06/28 02:24:27;;;;;;;19.38;10.35;;;15.80;72.80;;;;;;5108690;28;20027;-67
2022/06/28 02:26:54;;;;;;;29.58;16.45;;;15.80;73.80;;;;;;5102853;28;20070;-67
2022/06/28 02:29:20;;;;;;;26.02;16.63;;;15.80;74.40;;;;;;5101572;28;20405;-68
2022/06/28 02:31:46;;;;;;;16.77;11.15;;;15.80;74.80;;;;;;5107424;28;20024;-68
2022/06/28 02:40:21;;;;;;;21.60;7.15;;;15.80;74.20;;;;;;5108421;28;20023;-68
2022/06/28 02:42:29;;;;;;;5.22;4.45;;;15.80;73.20;;;;;;5103057;28;20124;-68
2022/06/28 02:44:55;;;;;;;6.70;4.25;;;15.70;72.90;;;;;;5108416;28;20022;-68
2022/06/28 02:47:22;;;;;;;6.40;4.00;;;15.70;72.90;;;;;;5104407;28;20355;-68
2022/06/28 02:49:48;;;;;;;4.78;4.28;;;15.70;72.80;;;;;;5112255;28;20055;-68
2022/06/28 02:52:14;;;;;;;5.43;4.22;;;15.70;72.80;;;;;;5106928;28;20027;-68
2022/06/28 02:54:41;;;;;;;5.68;3.88;;;15.70;72.80;;;;;;5110293;28;20107;-68
2022/06/28 02:57:07;;;;;;;9.05;5.65;;;15.70;72.80;;;;;;5105076;28;20558;-68
2022/06/28 02:59:34;;;;;;;4.53;3.83;;;15.70;72.80;;;;;;5109743;28;20031;-67
2022/06/28 03:02:00;;;;;;;5.63;4.70;;;15.60;72.80;;;;;;5112415;28;20415;-67
2022/06/28 03:04:27;;;;;;;6.32;4.50;;;15.60;72.80;;;;;;5111630;28;20562;-67
2022/06/28 03:06:53;;;;;;;6.32;5.13;;;15.60;73.00;;;;;;5104352;28;20039;-67
2022/06/28 03:09:20;;;;;;;7.05;4.97;;;15.60;72.80;;;;;;5109777;28;20028;-67
2022/06/28 03:11:46;;;;;;;7.55;6.15;;;15.60;72.80;;;;;;5112044;28;20047;-67
2022/06/28 03:14:13;;;;;;;7.20;5.75;;;15.60;72.70;;;;;;5109318;28;20450;-66
2022/06/28 03:16:39;;;;;;;10.45;6.20;;;15.60;72.60;;;;;;5107550;28;20416;-67
2022/06/28 03:19:06;;;;;;;7.72;6.20;;;15.60;72.70;;;;;;5111542;28;20024;-67
2022/06/28 03:21:32;;;;;;;10.75;5.65;;;15.60;72.70;;;;;;5112560;28;20042;-67
2022/06/28 03:23:58;;;;;;;13.48;7.53;;;15.60;73.50;;;;;;5110610;28;20019;-67
2022/06/28 03:26:25;;;;;;;11.50;7.85;;;15.60;73.00;;;;;;5110027;28;20043;-67
2022/06/28 03:28:51;;;;;;;10.93;8.60;;;15.60;73.40;;;;;;5111662;28;20027;-68
2022/06/28 03:31:18;;;;;;;16.45;8.18;;;15.60;73.40;;;;;;5109176;28;20022;-68
2022/06/28 03:33:44;;;;;;;18.50;7.50;;;15.60;73.80;;;;;;5108548;28;20091;-67
2022/06/28 03:36:11;;;;;;;10.90;7.97;;;15.60;73.90;;;;;;5110369;28;20041;-68
2022/06/28 03:38:37;;;;;;;22.48;10.50;;;15.50;73.30;;;;;;5102670;28;20028;-68
2022/06/28 03:41:04;;;;;;;26.38;15.77;;;15.50;73.00;;;;;;5107243;28;20027;-67
2022/06/28 03:43:30;;;;;;;21.17;16.85;;;15.50;73.70;;;;;;5109226;28;20031;-68
2022/06/28 03:45:57;;;;;;;20.45;13.45;;;15.50;73.50;;;;;;5108383;28;20028;-67
2022/06/28 03:48:23;;;;;;;21.27;10.50;;;15.50;73.50;;;;;;5107381;28;20386;-68
2022/06/28 03:50:50;;;;;;;10.27;9.25;;;15.50;74.60;;;;;;5107680;28;20016;-68
2022/06/28 03:53:16;;;;;;;26.65;19.30;;;15.50;74.10;;;;;;5110877;28;20103;-68
2022/06/28 03:55:43;;;;;;;23.77;16.15;;;15.50;73.80;;;;;;5108926;28;20016;-68
2022/06/28 03:58:09;;;;;;;14.00;10.98;;;15.40;73.50;;;;;;5108905;28;20027;-68
2022/06/28 04:00:36;;;;;;;13.70;9.60;;;15.40;73.10;;;;;;5110050;28;20419;-68
2022/06/28 06:18:35;;;;;;;15.02;9.82;;;14.50;75.50;;;;;;5096021;27;20477;-68
2022/06/28 06:21:02;;;;;;;15.77;9.35;;;14.60;76.10;;;;;;5091032;28;20024;-68
2022/06/28 06:23:28;;;;;;;19.05;10.15;;;14.60;75.90;;;;;;5088720;28;20027;-68
2022/06/28 06:25:55;;;;;;;15.13;9.75;;;14.60;75.70;;;;;;5088044;28;20024;-66
2022/06/28 06:28:21;;;;;;;27.75;11.60;;;14.60;75.60;;;;;;5095117;28;20051;-67
2022/06/28 06:30:48;;;;;;;17.55;9.77;;;14.70;75.50;;;;;;5089182;28;20043;-69
2022/06/28 06:33:14;;;;;;;17.98;10.98;;;14.70;75.50;;;;;;5088690;28;20046;-68
2022/06/28 06:35:40;;;;;;;24.55;12.00;;;14.70;75.40;;;;;;5086993;28;20494;-68
2022/06/28 06:38:07;;;;;;;22.77;10.65;;;14.70;75.30;;;;;;5084310;28;20063;-68
2022/06/28 06:40:35;;;;;;;15.50;10.63;;;14.80;75.70;;;;;;5089938;28;20038;-69
2022/06/28 06:43:03;;;;;;;13.43;9.05;;;14.80;75.70;;;;;;5090844;28;20103;-69
2022/06/28 06:45:29;;;;;;;18.92;8.77;;;14.80;75.50;;;;;;5094032;28;20027;-68
2022/06/28 06:47:56;;;;;;;13.60;10.25;;;14.80;75.40;;;;;;5092181;28;20028;-69
2022/06/28 06:50:22;;;;;;;25.05;9.68;;;14.90;75.40;;;;;;5089820;28;20048;-67
2022/06/28 06:52:49;;;;;;;23.75;9.82;;;14.90;75.40;;;;;;5087753;28;20103;-67
2022/06/28 06:55:16;;;;;;;18.85;10.30;;;14.90;75.00;;;;;;5087319;28;20744;-68
2022/06/28 06:57:43;;;;;;;26.65;9.35;;;14.90;74.80;;;;;;5091880;28;20086;-67
2022/06/28 07:00:10;;;;;;;38.28;10.52;;;14.90;75.10;;;;;;5087703;28;20348;-68
2022/06/28 07:02:43;;;;;;;18.00;8.65;;;14.90;75.20;;;;;;5092323;28;20048;-68
2022/06/28 07:05:11;;;;;;;15.02;9.45;;;14.90;75.40;;;;;;5090764;28;20486;-67
2022/06/28 07:07:37;;;;;;;18.50;9.55;;;14.90;75.50;;;;;;5087884;28;20028;-68
2022/06/28 07:10:04;;;;;;;13.65;8.63;;;15.00;75.60;;;;;;5087269;28;20059;-68
2022/06/28 07:12:31;;;;;;;17.00;9.90;;;15.00;75.80;;;;;;5086208;28;20066;-68
2022/06/28 07:14:58;;;;;;;19.27;10.48;;;15.00;75.80;;;;;;5090305;28;20497;-68
2022/06/28 07:17:24;;;;;;;16.80;9.55;;;15.00;76.50;;;;;;5088313;28;20037;-69
2022/06/28 07:19:51;;;;;;;19.73;10.80;;;15.00;76.10;;;;;;5085001;28;20031;-69
2022/06/28 07:22:17;;;;;;;16.63;9.70;;;15.00;76.20;;;;;;5089291;28;20020;-71
2022/06/28 07:24:44;;;;;;;14.85;10.73;;;15.00;76.30;;;;;;5093211;28;20024;-70
2022/06/28 07:27:11;;;;;;;16.73;10.95;;;15.10;76.40;;;;;;5090486;28;20023;-71
2022/06/28 07:29:37;;;;;;;18.33;10.50;;;15.10;76.50;;;;;;5074242;28;20088;-72
2022/06/28 07:32:04;;;;;;;20.98;11.88;;;15.10;76.50;;;;;;5077478;28;20383;-71
2022/06/28 07:34:31;;;;;;;23.42;13.48;;;15.20;76.50;;;;;;5072889;28;20491;-72
2022/06/28 07:36:57;;;;;;;28.83;12.10;;;15.20;76.80;;;;;;5075504;28;20036;-71
2022/06/28 07:39:24;;;;;;;29.10;13.05;;;15.20;77.00;;;;;;5074740;28;20048;-71
2022/06/28 07:41:51;;;;;;;25.02;15.02;;;15.20;77.10;;;;;;5075581;28;20016;-70
2022/06/28 07:44:17;;;;;;;22.95;14.23;;;15.30;77.20;;;;;;5075173;28;20025;-74
2022/06/28 07:46:43;;;;;;;25.50;14.48;;;15.30;77.50;;;;;;5076476;28;20466;-70
2022/06/28 07:49:10;;;;;;;20.98;12.77;;;15.30;77.70;;;;;;5070639;28;20043;-71
2022/06/28 07:54:23;;;;;;;23.77;11.82;;;15.40;77.80;;;;;;5070635;28;20402;-70
2022/06/28 07:56:49;;;;;;;19.90;11.00;;;15.40;78.00;;;;;;5075131;28;20029;-70
2022/06/28 07:59:16;;;;;;;21.92;10.32;;;15.50;78.10;;;;;;5076106;28;20027;-70
2022/06/28 08:01:42;;;;;;;12.45;9.10;;;15.50;78.40;;;;;;5076132;28;20027;-71
2022/06/28 08:04:11;;;;;;;29.33;10.77;;;15.50;78.60;;;;;;5074305;28;20023;-71
2022/06/28 08:06:38;;;;;;;30.65;10.60;;;15.60;78.90;;;;;;5076564;28;20028;-71
2022/06/28 08:09:05;;;;;;;19.92;10.55;;;15.60;79.20;;;;;;5073579;28;20021;-71
2022/06/28 08:11:32;;;;;;;23.10;11.38;;;15.60;79.40;;;;;;5078764;28;20050;-70
2022/06/28 08:14:00;;;;;;;34.00;14.18;;;15.70;79.70;;;;;;5073944;28;20036;-71
2022/06/28 08:16:26;;;;;;;19.38;11.70;;;15.70;79.80;;;;;;5074560;28;20044;-71
2022/06/28 08:18:53;;;;;;;25.52;11.98;;;15.70;79.80;;;;;;5074316;28;20032;-71
2022/06/28 08:21:20;;;;;;;26.02;10.95;;;15.80;80.20;;;;;;5068021;28;20028;-71
2022/06/28 08:23:46;;;;;;;20.42;11.05;;;15.80;80.40;;;;;;5074821;28;20028;-70
2022/06/28 08:26:13;;;;;;;23.38;10.32;;;16.00;80.70;;;;;;5073278;28;20025;-71
2022/06/28 08:28:39;;;;;;;15.73;10.32;;;16.00;80.50;;;;;;5073349;28;20024;-71
2022/06/28 08:31:06;;;;;;;20.23;10.10;;;16.10;80.50;;;;;;5075171;28;20042;-71
2022/06/28 08:33:32;;;;;;;23.20;10.80;;;16.10;80.40;;;;;;5077363;28;20025;-71
2022/06/28 08:35:59;;;;;;;26.40;11.35;;;16.10;80.40;;;;;;5069381;28;20031;-73
2022/06/28 08:38:25;;;;;;;27.00;10.85;;;16.20;80.30;;;;;;5078458;28;20111;-75
2022/06/28 08:40:53;;;;;;;22.88;11.02;;;16.30;80.20;;;;;;5071482;28;20021;-71
2022/06/28 08:43:20;;;;;;;21.23;11.25;;;16.30;80.00;;;;;;5078673;28;20024;-75
2022/06/28 08:45:47;;;;;;;20.55;10.25;;;16.40;80.10;;;;;;5074583;28;20027;-69
2022/06/28 08:48:30;;;;;;;18.30;10.40;;;16.40;80.30;;;;;;5073192;28;20067;-72
2022/06/28 08:51:00;;;;;;;24.77;11.63;;;16.50;80.50;;;;;;5074389;28;20039;-72
2022/06/28 08:53:27;;;;;;;17.35;11.63;;;16.60;80.60;;;;;;5072074;28;20025;-71
2022/06/28 08:55:54;;;;;;;17.25;10.57;;;16.60;81.40;;;;;;5073790;28;20120;-72
2022/06/28 08:58:21;;;;;;;25.58;10.73;;;16.70;80.80;;;;;;5078357;28;20060;-72
2022/06/28 09:00:48;;;;;;;15.43;9.13;;;16.80;80.70;;;;;;5078213;28;20066;-71
2022/06/28 09:03:16;;;;;;;10.30;7.35;;;16.80;80.50;;;;;;5076676;28;20028;-72
2022/06/28 09:05:42;;;;;;;14.13;8.10;;;16.90;80.20;;;;;;5073884;28;20028;-70
2022/06/28 09:08:09;;;;;;;11.38;5.03;;;17.00;79.70;;;;;;5074348;28;20452;-70
2022/06/28 09:10:36;;;;;;;16.77;5.40;;;17.00;78.60;;;;;;5074403;28;20032;-71
2022/06/28 09:13:08;;;;;;;8.25;5.20;;;17.10;78.50;;;;;;5076106;28;20063;-71
2022/06/28 09:15:49;;;;;;;12.75;4.88;;;17.20;77.90;;;;;;5072313;28;20036;-71
2022/06/28 09:18:17;;;;;;;15.15;4.75;;;17.30;78.10;;;;;;5070783;28;20092;-71
2022/06/28 09:20:44;;;;;;;6.38;4.07;;;17.40;77.50;;;;;;5079309;28;20012;-71
2022/06/28 09:23:34;;;;;;;6.78;3.95;;;17.50;77.50;;;;;;5073142;28;20035;-70
2022/06/28 09:26:20;;;;;;;13.55;3.95;;;17.60;76.70;;;;;;5071272;28;20070;-72
2022/06/28 09:28:51;;;;;;;10.15;3.53;;;17.70;75.90;;;;;;5076134;28;20024;-69
2022/06/28 09:31:31;;;;;;;12.75;3.95;;;17.80;74.20;;;;;;5071257;28;20017;-71
2022/06/28 09:34:03;;;;;;;8.80;3.65;;;17.90;73.80;;;;;;5071960;28;20025;-70
2022/06/28 09:36:36;;;;;;;5.05;2.95;;;18.00;72.70;;;;;;5073795;28;20040;-70
2022/06/28 09:39:16;;;;;;;8.65;3.75;;;18.10;72.60;;;;;;5068859;28;20378;-71
2022/06/28 09:41:48;;;;;;;9.63;3.65;;;18.20;72.10;;;;;;5075459;28;20035;-70
2022/06/28 09:44:17;;;;;;;10.18;3.83;;;18.30;72.20;;;;;;5074078;28;20562;-70
2022/06/28 09:46:45;;;;;;;9.95;3.78;;;18.30;71.60;;;;;;5075400;28;20106;-72
2022/06/28 09:49:12;;;;;;;19.05;3.80;;;18.40;70.90;;;;;;5071681;28;20030;-70
2022/06/28 09:51:39;;;;;;;6.40;3.97;;;18.50;70.60;;;;;;5074456;28;20481;-70
2022/06/28 09:54:08;;;;;;;7.97;3.20;;;18.60;70.20;;;;;;5074117;28;20051;-69
2022/06/28 09:56:41;;;;;;;10.85;3.63;;;18.70;68.80;;;;;;5072659;28;20128;-70
2022/06/28 09:59:08;;;;;;;9.13;2.95;;;18.80;67.00;;;;;;5075306;28;20103;-70
2022/06/28 10:01:35;;;;;;;13.13;3.10;;;18.80;65.60;;;;;;5073723;28;20048;-69
2022/06/28 10:04:03;;;;;;;13.10;3.00;;;18.90;66.10;;;;;;5074137;28;20043;-70
2022/06/28 10:06:31;;;;;;;9.18;3.13;;;19.00;65.90;;;;;;5075337;28;20074;-69
2022/06/28 10:08:59;;;;;;;7.55;3.00;;;19.10;63.80;;;;;;5072928;28;20479;-70
2022/06/28 10:11:25;;;;;;;6.53;3.08;;;19.20;62.80;;;;;;5074431;28;20073;-70
2022/06/28 10:16:48;;;;;;;6.90;3.07;;;19.40;62.30;;;;;;5073706;28;20063;-70
2022/06/28 10:19:20;;;;;;;5.85;3.15;;;19.50;63.00;;;;;;5071149;28;20028;-69
2022/06/28 10:22:10;;;;;;;3.33;1.73;;;19.60;61.70;;;;;;5072282;28;20062;-70
2022/06/28 10:24:55;;;;;;;6.88;2.15;;;19.60;59.40;;;;;;5072061;28;20434;-70
2022/06/28 10:27:23;;;;;;;5.30;3.23;;;19.70;57.70;;;;;;5072250;28;20042;-70
2022/06/28 10:30:20;;;;;;;4.97;2.58;;;19.90;58.20;;;;;;5075575;28;20647;-70
2022/06/28 10:32:50;;;;;;;6.70;2.08;;;20.00;59.20;;;;;;5069590;28;20043;-70
2022/06/28 10:35:29;;;;;;;2.72;2.03;;;20.00;57.30;;;;;;5073157;28;20100;-70
2022/06/28 10:38:11;;;;;;;6.15;2.83;;;20.10;57.30;;;;;;5073359;28;20043;-70
2022/06/28 10:40:52;;;;;;;4.10;2.45;;;20.20;57.00;;;;;;5073018;28;20074;-70
2022/06/28 10:43:44;;;;;;;8.13;3.83;;;20.30;57.50;;;;;;5077783;28;20013;-70
2022/06/28 10:46:11;;;;;;;7.25;3.15;;;20.40;57.90;;;;;;5071220;28;20030;-70
2022/06/28 10:48:50;;;;;;;5.47;2.45;;;20.50;57.30;;;;;;5073115;28;20028;-70
2022/06/28 10:51:18;;;;;;;7.65;2.53;;;20.50;57.10;;;;;;5070928;28;20099;-70
2022/06/28 10:54:16;;;;;;;2.67;2.28;;;20.60;57.00;;;;;;5075159;28;20024;-70
2022/06/28 10:56:46;;;;;;;3.25;2.17;;;20.70;57.60;;;;;;5071396;28;20053;-70
2022/06/28 10:59:17;;;;;;;4.38;2.70;;;20.80;57.40;;;;;;5072382;28;20021;-70
2022/06/28 11:01:47;;;;;;;10.35;3.22;;;20.80;56.00;;;;;;5072003;28;20024;-70
2022/06/28 11:04:19;;;;;;;6.65;2.97;;;20.90;56.20;;;;;;5075689;28;20051;-70
2022/06/28 11:06:48;;;;;;;6.68;2.05;;;21.00;55.20;;;;;;5075587;28;20036;-70
2022/06/28 11:09:47;;;;;;;2.60;1.80;;;21.00;54.10;;;;;;5077766;28;20498;-72
2022/06/28 11:12:22;;;;;;;7.22;2.33;;;21.10;54.60;;;;;;5074732;28;20076;-71
2022/06/28 11:15:06;;;;;;;8.77;4.57;;;21.10;54.30;;;;;;5076161;28;20031;-70
2022/06/28 11:17:51;;;;;;;10.63;2.70;;;21.20;54.20;;;;;;5079435;28;20044;-70
2022/06/28 11:20:25;;;;;;;4.45;2.85;;;21.20;54.10;;;;;;5073978;28;20377;-70
2022/06/28 11:22:52;;;;;;;6.53;2.47;;;21.30;52.90;;;;;;5075947;28;20486;-70
2022/06/28 11:25:21;;;;;;;5.60;2.20;;;21.30;53.30;;;;;;5073995;28;20078;-70
2022/06/28 11:27:56;;;;;;;4.03;2.30;;;21.40;53.40;;;;;;5075633;28;20066;-70
2022/06/28 11:30:23;;;;;;;;;;;21.40;53.60;;;;;;5076451;28;20051;-70
2022/06/28 11:32:53;;;;;;;8.02;2.75;;;21.50;53.80;;;;;;5077967;28;19998;-70
2022/06/28 11:35:25;;;;;;;3.92;2.75;;;21.60;53.70;;;;;;5078108;28;20359;-70
2022/06/28 11:38:00;;;;;;;4.15;1.50;;;21.70;52.30;;;;;;5076740;28;20145;-68
2022/06/28 11:40:50;;;;;;;10.27;2.13;;;21.80;51.40;;;;;;5075181;28;20490;-69
2022/06/28 11:43:19;;;;;;;4.68;1.60;;;21.80;51.80;;;;;;5077351;28;20017;-70
2022/06/28 11:45:50;;;;;;;3.28;1.83;;;21.90;51.40;;;;;;5075460;28;20024;-70
2022/06/28 11:48:37;;;;;;;4.80;2.40;;;22.00;50.50;;;;;;5073376;28;20013;-70
2022/06/28 11:51:03;;;;;;;4.43;1.88;;;22.00;50.30;;;;;;5077549;28;20103;-69
2022/06/28 11:53:30;;;;;;;3.63;1.50;;;22.10;49.30;;;;;;5075190;28;20127;-69
2022/06/28 11:55:58;;;;;;;8.82;2.03;;;22.10;49.00;;;;;;5076976;28;20028;-70
2022/06/28 11:58:26;;;;;;;2.63;1.75;;;22.20;48.30;;;;;;5079286;28;20062;-69
2022/06/28 12:01:08;;;;;;;5.35;1.75;;;22.20;47.20;;;;;;5073873;28;20083;-70
2022/06/28 12:03:43;;;;;;;8.38;1.77;;;22.30;47.80;;;;;;5077215;28;20474;-70
2022/06/28 12:06:11;;;;;;;5.13;2.10;;;22.30;47.70;;;;;;5078340;28;20499;-71
2022/06/28 15:02:38;;;;;;;11.32;3.70;;;22.10;52.30;;;;;;6072253;22;3445531;-72
2022/06/28 15:05:05;;;;;;;10.30;3.53;;;22.00;52.50;;;;;;6220222;23;20039;-74
2022/06/28 15:07:32;;;;;;;353.48;317.13;;;21.90;52.90;;;;;;6219650;23;20123;-70
2022/06/28 15:09:58;;;;;;;89.18;67.95;;;21.90;53.50;;;;;;6220451;23;20000;-71
2022/06/28 15:12:25;;;;;;;41.25;28.88;;;21.80;53.80;;;;;;6217750;23;20028;-74
2022/06/28 15:14:52;;;;;;;28.15;17.83;;;21.80;54.50;;;;;;6220283;23;20099;-69
2022/06/28 15:17:19;;;;;;;25.20;12.75;;;21.80;54.50;;;;;;6219144;23;20596;-74
2022/06/28 15:19:46;;;;;;;31.45;10.60;;;21.70;54.70;;;;;;6219103;23;20011;-73
2022/06/28 15:33:11;;;;;;;36.63;18.55;;;21.40;59.90;;;;;;6219857;23;20222;-75
2022/06/28 15:35:37;;;;;;;29.38;16.85;;;21.30;60.40;;;;;;6218856;23;20034;-71
2022/06/28 15:38:07;;;;;;;24.25;15.35;;;21.30;60.60;;;;;;6215766;23;20495;-76
2022/06/28 15:40:33;;;;;;;23.63;14.15;;;21.20;61.00;;;;;;6185597;23;20490;-72
2022/06/28 15:43:00;;;;;;;22.20;11.57;;;21.20;61.70;;;;;;6211585;23;20005;-70
2022/06/28 15:45:26;;;;;;;26.13;11.13;;;21.10;61.40;;;;;;6212341;23;20039;-72
2022/06/28 15:47:53;;;;;;;26.30;9.68;;;21.10;61.40;;;;;;6210281;23;20005;-72
2022/06/28 15:50:20;;;;;;;31.83;10.60;;;21.00;61.50;;;;;;6210654;23;20051;-73
2022/06/28 15:52:47;;;;;;;24.65;8.27;;;21.00;61.90;;;;;;6211111;23;20447;-70
2022/06/28 15:55:15;;;;;;;13.15;6.55;;;20.90;62.20;;;;;;6210602;23;19993;-71
2022/06/28 15:57:42;;;;;;;15.02;5.03;;;20.90;62.40;;;;;;6211549;23;20319;-71
2022/06/28 16:00:10;;;;;;;56.90;12.70;;;20.80;62.20;;;;;;6210544;23;20007;-74
2022/06/28 16:02:38;;;;;;;93.72;56.85;;;20.80;62.10;;;;;;6211918;23;20070;-75
2022/06/28 16:05:05;;;;;;;269.65;78.70;;;20.80;62.40;;;;;;6210781;23;20341;-76
2022/06/28 16:07:32;;;;;;;178.50;56.40;;;20.70;62.00;;;;;;6211941;23;20012;-73
2022/06/28 16:10:00;;;;;;;141.15;41.08;;;20.60;61.70;;;;;;6211190;23;20080;-71
2022/06/28 16:15:11;;;;;;;57.85;22.08;;;20.60;62.30;;;;;;6211994;23;20015;-70
2022/06/28 16:17:37;;;;;;;44.80;17.55;;;20.50;62.60;;;;;;6210169;23;20387;-74
2022/06/28 16:20:19;;;;;;;76.85;43.13;;;20.50;62.90;;;;;;6211194;23;20016;-76
2022/06/28 16:22:46;;;;;;;66.07;41.75;;;20.50;63.10;;;;;;6183899;23;20011;-70
2022/06/28 16:25:14;;;;;;;53.10;33.10;;;20.50;63.50;;;;;;6211319;23;20040;-72
2022/06/28 16:27:41;;;;;;;43.88;29.50;;;20.40;63.80;;;;;;6211134;23;20023;-70
2022/06/28 16:30:09;;;;;;;35.50;23.60;;;20.40;64.10;;;;;;6209547;23;20000;-75
2022/06/28 16:32:35;;;;;;;34.15;21.17;;;20.30;64.20;;;;;;6210940;23;20007;-67
2022/06/28 16:35:03;;;;;;;32.22;19.02;;;20.40;64.30;;;;;;6210088;23;20104;-70
2022/06/28 16:37:29;;;;;;;25.30;18.80;;;20.30;64.30;;;;;;6210826;23;20423;-73
2022/06/28 16:39:56;;;;;;;23.83;13.52;;;20.30;64.40;;;;;;6209675;23;20428;-71
2022/06/28 16:42:23;;;;;;;24.27;12.40;;;20.20;64.30;;;;;;6211691;23;19997;-72
2022/06/28 16:44:52;;;;;;;20.95;11.70;;;20.20;64.10;;;;;;6183859;23;20127;-70
2022/06/28 16:47:21;;;;;;;23.88;9.57;;;20.20;64.20;;;;;;6209754;23;20099;-70
2022/06/28 16:49:48;;;;;;;20.52;8.90;;;20.20;64.00;;;;;;6183802;23;20080;-68
2022/06/28 16:52:15;;;;;;;10.82;8.48;;;20.10;63.90;;;;;;6209228;23;20094;-67
2022/06/28 16:54:42;;;;;;;8.20;7.03;;;20.10;63.80;;;;;;6211389;23;20032;-71
2022/06/28 16:57:12;;;;;;;9.85;6.07;;;20.10;63.50;;;;;;6210960;23;20554;-73
2022/06/28 16:59:39;;;;;;;9.63;5.68;;;20.10;63.40;;;;;;6212095;23;19996;-70
2022/06/28 17:02:09;;;;;;;14.20;5.80;;;20.10;63.20;;;;;;6209849;23;20024;-69
2022/06/28 17:05:15;;;;;;;10.40;8.40;;;20.00;63.20;;;;;;6183822;23;20565;-69
2022/06/28 17:08:21;;;;;;;11.95;9.77;;;20.00;63.50;;;;;;6209712;23;20128;-72
2022/06/28 17:11:27;;;;;;;13.02;9.15;;;20.10;63.60;;;;;;6209051;23;20339;-74
2022/06/28 17:14:33;;;;;;;20.85;8.52;;;20.10;63.80;;;;;;6209264;23;20007;-68
2022/06/28 17:17:39;;;;;;;23.27;6.90;;;20.10;63.70;;;;;;6209719;23;20071;-74
2022/06/28 17:20:45;;;;;;;12.30;6.07;;;20.00;64.20;;;;;;6210396;23;20008;-66
2022/06/28 17:23:51;;;;;;;6.00;4.32;;;20.00;64.20;;;;;;6208876;23;20071;-70
2022/06/28 17:26:57;;;;;;;7.03;4.22;;;20.00;63.80;;;;;;6210228;23;20349;-71
2022/06/28 17:30:04;;;;;;;5.78;4.43;;;20.00;64.00;;;;;;6210301;23;20054;-70
2022/06/28 17:33:10;;;;;;;4.72;3.75;;;19.90;64.30;;;;;;6208048;23;20000;-70
2022/06/28 17:36:16;;;;;;;25.13;5.40;;;19.90;64.40;;;;;;6208597;23;20027;-71
2022/06/28 17:39:22;;;;;;;14.18;4.35;;;19.80;64.80;;;;;;6210151;23;20024;-72
2022/06/28 17:42:28;;;;;;;15.95;4.65;;;19.80;65.10;;;;;;6210134;23;20001;-71
2022/06/28 17:45:34;;;;;;;8.73;3.90;;;19.80;65.30;;;;;;6209051;23;20079;-70
2022/06/28 17:48:40;;;;;;;8.60;3.83;;;19.70;65.30;;;;;;6180823;23;20020;-71
2022/06/28 17:51:46;;;;;;;5.45;3.17;;;19.70;65.10;;;;;;6209565;23;20092;-69
2022/06/28 17:54:55;;;;;;;5.95;3.88;;;19.70;65.10;;;;;;6207975;23;20008;-70
2022/06/28 17:58:01;;;;;;;27.10;18.77;;;19.70;65.10;;;;;;6207974;23;20028;-71
2022/06/28 18:01:07;;;;;;;59.65;46.83;;;19.60;65.20;;;;;;6210867;23;19996;-70
2022/06/28 18:03:35;;;;;;;34.72;28.17;;;19.60;65.20;;;;;;6210079;23;20005;-71
2022/06/28 18:06:02;;;;;;;23.50;18.67;;;19.60;65.30;;;;;;6209847;23;20320;-70
2022/06/28 18:08:29;;;;;;;16.90;13.15;;;19.60;65.30;;;;;;6211593;23;20000;-71
2022/06/28 18:10:55;;;;;;;12.32;9.65;;;19.50;65.10;;;;;;6209876;23;20015;-75
2022/06/28 18:13:41;;;;;;;11.93;7.63;;;19.50;65.20;;;;;;6211379;23;20001;-71
2022/06/28 18:16:08;;;;;;;10.32;5.65;;;19.50;65.30;;;;;;6210621;23;20386;-68
2022/06/28 18:18:36;;;;;;;11.48;6.13;;;19.50;65.40;;;;;;6208956;23;20043;-72
2022/06/28 18:21:03;;;;;;;9.00;4.70;;;19.50;65.80;;;;;;6209927;23;20011;-69
2022/06/28 18:23:30;;;;;;;8.52;5.25;;;19.40;65.90;;;;;;6208608;23;19996;-70
2022/06/28 18:25:58;;;;;;;11.57;6.95;;;19.40;65.90;;;;;;6210300;23;20320;-73
2022/06/28 18:28:24;;;;;;;12.88;8.00;;;19.40;65.60;;;;;;6181331;23;20012;-69
2022/06/28 18:30:51;;;;;;;25.27;14.93;;;19.40;65.50;;;;;;6183120;23;20005;-66
2022/06/28 18:33:17;;;;;;;27.25;17.70;;;19.40;65.40;;;;;;6182914;23;20002;-69
2022/06/28 18:35:44;;;;;;;32.30;18.35;;;19.30;65.40;;;;;;6209385;23;20072;-71